地図

経路データ

SID SEASON NUMBER BASIN SUBBASIN NAME ISO_TIME NATURE LAT LON WMO_WIND WMO_PRES WMO_AGENCY TRACK_TYPE DIST2LAND LANDFALL IFLAG USA_AGENCY USA_ATCF_ID USA_LAT USA_LON USA_RECORD USA_STATUS USA_WIND USA_PRES USA_SSHS USA_R34_NE USA_R34_SE USA_R34_SW USA_R34_NW USA_R50_NE USA_R50_SE USA_R50_SW USA_R50_NW USA_R64_NE USA_R64_SE USA_R64_SW USA_R64_NW USA_POCI USA_ROCI USA_RMW USA_EYE TOKYO_LAT TOKYO_LON TOKYO_GRADE TOKYO_WIND TOKYO_PRES TOKYO_R50_DIR TOKYO_R50_LONG TOKYO_R50_SHORT TOKYO_R30_DIR TOKYO_R30_LONG TOKYO_R30_SHORT TOKYO_LAND CMA_LAT CMA_LON CMA_CAT CMA_WIND CMA_PRES HKO_LAT HKO_LON HKO_CAT HKO_WIND HKO_PRES NEWDELHI_LAT NEWDELHI_LON NEWDELHI_GRADE NEWDELHI_WIND NEWDELHI_PRES NEWDELHI_CI NEWDELHI_DP NEWDELHI_POCI REUNION_LAT REUNION_LON REUNION_TYPE REUNION_WIND REUNION_PRES REUNION_TNUM REUNION_CI REUNION_RMW REUNION_R34_NE REUNION_R34_SE REUNION_R34_SW REUNION_R34_NW REUNION_R50_NE REUNION_R50_SE REUNION_R50_SW REUNION_R50_NW REUNION_R64_NE REUNION_R64_SE REUNION_R64_SW REUNION_R64_NW BOM_LAT BOM_LON BOM_TYPE BOM_WIND BOM_PRES BOM_TNUM BOM_CI BOM_RMW BOM_R34_NE BOM_R34_SE BOM_R34_SW BOM_R34_NW BOM_R50_NE BOM_R50_SE BOM_R50_SW BOM_R50_NW BOM_R64_NE BOM_R64_SE BOM_R64_SW BOM_R64_NW BOM_ROCI BOM_POCI BOM_EYE BOM_POS_METHOD BOM_PRES_METHOD NADI_LAT NADI_LON NADI_CAT NADI_WIND NADI_PRES WELLINGTON_LAT WELLINGTON_LON WELLINGTON_WIND WELLINGTON_PRES DS824_LAT DS824_LON DS824_STAGE DS824_WIND DS824_PRES TD9636_LAT TD9636_LON TD9636_STAGE TD9636_WIND TD9636_PRES TD9635_LAT TD9635_LON TD9635_WIND TD9635_PRES TD9635_ROCI NEUMANN_LAT NEUMANN_LON NEUMANN_CLASS NEUMANN_WIND NEUMANN_PRES MLC_LAT MLC_LON MLC_CLASS MLC_WIND MLC_PRES USA_GUST BOM_GUST BOM_GUST_PER REUNION_GUST REUNION_GUST_PER USA_SEAHGT USA_SEARAD_NE USA_SEARAD_SE USA_SEARAD_SW USA_SEARAD_NW STORM_SPEED STORM_DIR
1899001S10067 1899 1 SI MM NOT_NAMED 1899-01-01 06:00:00 NR -9.70000 67.3000 reunion main 1554 1538 _____O________ -1 -9.70000 67.3000 99 9.90000 3 223
1899001S10067 1899 1 SI MM NOT_NAMED 1899-01-01 09:00:00 NR -9.79101 67.2066 main 1538 1523 _____P________ -1 -9.79101 67.2066 99 3 225
1899001S10067 1899 1 SI MM NOT_NAMED 1899-01-01 12:00:00 NR -9.88286 67.1126 main 1523 1507 _____P________ -1 -9.88286 67.1126 99 3 225
1899001S10067 1899 1 SI MM NOT_NAMED 1899-01-01 15:00:00 NR -9.97642 67.0173 main 1507 1491 _____P________ -1 -9.97642 67.0173 99 3 225
1899001S10067 1899 1 SI MM NOT_NAMED 1899-01-01 18:00:00 NR -10.0725 66.9201 main 1491 1476 _____P________ -1 -10.0725 66.9201 99 3 224
1899001S10067 1899 1 SI MM NOT_NAMED 1899-01-01 21:00:00 NR -10.1721 66.8204 main 1476 1460 _____P________ -1 -10.1721 66.8204 99 3 224
1899001S10067 1899 1 SI MM NOT_NAMED 1899-01-02 00:00:00 NR -10.2760 66.7175 main 1460 1445 _____P________ -1 -10.2760 66.7175 99 3 224
1899001S10067 1899 1 SI MM NOT_NAMED 1899-01-02 03:00:00 NR -10.3850 66.6110 main 1445 1429 _____P________ -1 -10.3850 66.6110 99 3 224
1899001S10067 1899 1 SI MM NOT_NAMED 1899-01-02 06:00:00 NR -10.5000 66.5000 reunion main 1429 1413 _____O________ -1 -10.5000 66.5000 99 9.90000 3 223
1899001S10067 1899 1 SI MM NOT_NAMED 1899-01-02 09:00:00 NR -10.6216 66.3843 main 1413 1398 _____P________ -1 -10.6216 66.3843 99 3 223
1899001S10067 1899 1 SI MM NOT_NAMED 1899-01-02 12:00:00 NR -10.7494 66.2643 main 1398 1367 _____P________ -1 -10.7494 66.2643 99 4 223
1899001S10067 1899 1 SI MM NOT_NAMED 1899-01-02 15:00:00 NR -10.8824 66.1410 main 1367 1351 _____P________ -1 -10.8824 66.1410 99 4 222
1899001S10067 1899 1 SI MM NOT_NAMED 1899-01-02 18:00:00 NR -11.0200 66.0149 main 1351 1327 _____P________ -1 -11.0200 66.0149 99 4 222
1899001S10067 1899 1 SI MM NOT_NAMED 1899-01-02 21:00:00 NR -11.1613 65.8870 main 1327 1311 _____P________ -1 -11.1613 65.8870 99 4 222
1899001S10067 1899 1 SI MM NOT_NAMED 1899-01-03 00:00:00 NR -11.3056 65.7580 main 1311 1289 _____P________ -1 -11.3056 65.7580 99 4 221
1899001S10067 1899 1 SI MM NOT_NAMED 1899-01-03 03:00:00 NR -11.4521 65.6288 main 1280 1264 _____P________ -1 -11.4521 65.6288 99 4 221
1899001S10067 1899 1 SI MM NOT_NAMED 1899-01-03 06:00:00 NR -11.6000 65.5000 reunion main 1264 1249 _____O________ -1 -11.6000 65.5000 99 9.90000 4 220
1899001S10067 1899 1 SI MM NOT_NAMED 1899-01-03 09:00:00 NR -11.7472 65.3730 main 1249 1225 _____P________ -1 -11.7472 65.3730 99 4 220
1899001S10067 1899 1 SI MM NOT_NAMED 1899-01-03 12:00:00 NR -11.8968 65.2459 main 1218 1202 _____P________ -1 -11.8968 65.2459 99 4 220
1899001S10067 1899 1 SI MM NOT_NAMED 1899-01-03 15:00:00 NR -12.0480 65.1189 main 1202 1178 _____P________ -1 -12.0480 65.1189 99 4 219
1899001S10067 1899 1 SI MM NOT_NAMED 1899-01-03 18:00:00 NR -12.1999 64.9924 main 1178 1162 _____P________ -1 -12.1999 64.9924 99 4 219
1899001S10067 1899 1 SI MM NOT_NAMED 1899-01-03 21:00:00 NR -12.3519 64.8669 main 1154 1131 _____P________ -1 -12.3519 64.8669 99 4 219
1899001S10067 1899 1 SI MM NOT_NAMED 1899-01-04 00:00:00 NR -12.5031 64.7427 main 1131 1116 _____P________ -1 -12.5031 64.7427 99 4 219
1899001S10067 1899 1 SI MM NOT_NAMED 1899-01-04 03:00:00 NR -12.6527 64.6203 main 1107 1092 _____P________ -1 -12.6527 64.6203 99 4 219
1899001S10067 1899 1 SI MM NOT_NAMED 1899-01-04 06:00:00 NR -12.8000 64.5000 reunion main 1092 1076 _____O________ -1 -12.8000 64.5000 99 9.90000 4 219
1899001S10067 1899 1 SI MM NOT_NAMED 1899-01-04 09:00:00 NR -12.9363 64.3884 main 1076 1052 _____P________ -1 -12.9363 64.3884 99 3 219
1899001S10067 1899 1 SI MM NOT_NAMED 1899-01-04 12:00:00 NR -13.0698 64.2796 main 1052 1036 _____P________ -1 -13.0698 64.2796 99 3 218
1899001S10067 1899 1 SI MM NOT_NAMED 1899-01-04 15:00:00 NR -13.2021 64.1721 main 1036 1021 _____P________ -1 -13.2021 64.1721 99 3 218
1899001S10067 1899 1 SI MM NOT_NAMED 1899-01-04 18:00:00 NR -13.3348 64.0644 main 1021 997 _____P________ -1 -13.3348 64.0644 99 3 219
1899001S10067 1899 1 SI MM NOT_NAMED 1899-01-04 21:00:00 NR -13.4693 63.9549 main 997 974 _____P________ -1 -13.4693 63.9549 99 3 218
1899001S10067 1899 1 SI MM NOT_NAMED 1899-01-05 00:00:00 NR -13.6073 63.8420 main 974 959 _____P________ -1 -13.6073 63.8420 99 4 218
1899001S10067 1899 1 SI MM NOT_NAMED 1899-01-05 03:00:00 NR -13.7504 63.7242 main 950 935 _____P________ -1 -13.7504 63.7242 99 4 219
1899001S10067 1899 1 SI MM NOT_NAMED 1899-01-05 06:00:00 NR -13.9000 63.6000 reunion main 935 911 _____O________ -1 -13.9000 63.6000 99 9.90000 4 219
1899001S10067 1899 1 SI MM NOT_NAMED 1899-01-05 09:00:00 NR -14.0668 63.4583 main 911 888 _____P________ -1 -14.0668 63.4583 99 4 220
1899001S10067 1899 1 SI MM NOT_NAMED 1899-01-05 12:00:00 NR -14.2407 63.3096 main 888 864 _____P________ -1 -14.2407 63.3096 99 5 220
1899001S10067 1899 1 SI MM NOT_NAMED 1899-01-05 15:00:00 NR -14.4193 63.1562 main 864 833 _____P________ -1 -14.4193 63.1562 99 5 220
1899001S10067 1899 1 SI MM NOT_NAMED 1899-01-05 18:00:00 NR -14.6002 63.0004 main 833 809 _____P________ -1 -14.6002 63.0004 99 5 220
1899001S10067 1899 1 SI MM NOT_NAMED 1899-01-05 21:00:00 NR -14.7810 62.8445 main 802 787 _____P________ -1 -14.7810 62.8445 99 5 220
1899001S10067 1899 1 SI MM NOT_NAMED 1899-01-06 00:00:00 NR -14.9595 62.6909 main 778 756 _____P________ -1 -14.9595 62.6909 99 5 220
1899001S10067 1899 1 SI MM NOT_NAMED 1899-01-06 03:00:00 NR -15.1333 62.5419 main 756 732 _____P________ -1 -15.1333 62.5419 99 4 219
1899001S10067 1899 1 SI MM NOT_NAMED 1899-01-06 06:00:00 NR -15.3000 62.4000 reunion main 732 716 _____O________ -1 -15.3000 62.4000 99 9.90000 4 220
1899001S10067 1899 1 SI MM NOT_NAMED 1899-01-06 09:00:00 NR -15.4456 62.2732 main 716 693 _____P________ -1 -15.4456 62.2732 99 4 220
1899001S10067 1899 1 SI MM NOT_NAMED 1899-01-06 12:00:00 NR -15.5842 62.1529 main 693 670 _____P________ -1 -15.5842 62.1529 99 4 220
1899001S10067 1899 1 SI MM NOT_NAMED 1899-01-06 15:00:00 NR -15.7181 62.0378 main 670 654 _____P________ -1 -15.7181 62.0378 99 3 219
1899001S10067 1899 1 SI MM NOT_NAMED 1899-01-06 18:00:00 NR -15.8497 61.9268 main 654 631 _____P________ -1 -15.8497 61.9268 99 3 218
1899001S10067 1899 1 SI MM NOT_NAMED 1899-01-06 21:00:00 NR -15.9814 61.8187 main 631 615 _____P________ -1 -15.9814 61.8187 99 3 218
1899001S10067 1899 1 SI MM NOT_NAMED 1899-01-07 00:00:00 NR -16.1155 61.7123 main 615 600 _____P________ -1 -16.1155 61.7123 99 3 217
1899001S10067 1899 1 SI MM NOT_NAMED 1899-01-07 03:00:00 NR -16.2542 61.6065 main 591 576 _____P________ -1 -16.2542 61.6065 99 4 216
1899001S10067 1899 1 SI MM NOT_NAMED 1899-01-07 06:00:00 NR -16.4000 61.5000 reunion main 576 552 _____O________ -1 -16.4000 61.5000 99 9.90000 4 215
1899001S10067 1899 1 SI MM NOT_NAMED 1899-01-07 09:00:00 NR -16.5668 61.3743 main 552 537 _____P________ -1 -16.5668 61.3743 99 4 216
1899001S10067 1899 1 SI MM NOT_NAMED 1899-01-07 12:00:00 NR -16.7407 61.2469 main 530 506 _____P________ -1 -16.7407 61.2469 99 4 215
1899001S10067 1899 1 SI MM NOT_NAMED 1899-01-07 15:00:00 NR -16.9193 61.1206 main 506 483 _____P________ -1 -16.9193 61.1206 99 4 214
1899001S10067 1899 1 SI MM NOT_NAMED 1899-01-07 18:00:00 NR -17.1002 60.9980 main 483 460 _____P________ -1 -17.1002 60.9980 99 4 212
1899001S10067 1899 1 SI MM NOT_NAMED 1899-01-07 21:00:00 NR -17.2810 60.8819 main 460 444 _____P________ -1 -17.2810 60.8819 99 4 210
1899001S10067 1899 1 SI MM NOT_NAMED 1899-01-08 00:00:00 NR -17.4595 60.7751 main 437 421 _____P________ -1 -17.4595 60.7751 99 4 209
1899001S10067 1899 1 SI MM NOT_NAMED 1899-01-08 03:00:00 NR -17.6333 60.6802 main 421 399 _____P________ -1 -17.6333 60.6802 99 4 206
1899001S10067 1899 1 SI MM NOT_NAMED 1899-01-08 06:00:00 NR -17.8000 60.6000 reunion main 399 383 _____O________ -1 -17.8000 60.6000 99 9.90000 3 205
1899001S10067 1899 1 SI MM NOT_NAMED 1899-01-08 09:00:00 NR -17.9322 60.5290 main 383 376 _____P________ -1 -17.9322 60.5290 99 3 206
1899001S10067 1899 1 SI MM NOT_NAMED 1899-01-08 12:00:00 NR -18.0558 60.4712 main 369 354 _____P________ -1 -18.0558 60.4712 99 3 202
1899001S10067 1899 1 SI MM NOT_NAMED 1899-01-08 15:00:00 NR -18.1758 60.4265 main 354 347 _____P________ -1 -18.1758 60.4265 99 3 195
1899001S10067 1899 1 SI MM NOT_NAMED 1899-01-08 18:00:00 NR -18.2973 60.3951 main 347 341 _____P________ -1 -18.2973 60.3951 99 3 190
1899001S10067 1899 1 SI MM NOT_NAMED 1899-01-08 21:00:00 NR -18.4254 60.3768 main 341 329 _____P________ -1 -18.4254 60.3768 99 3 183
1899001S10067 1899 1 SI MM NOT_NAMED 1899-01-09 00:00:00 NR -18.5652 60.3715 main 329 323 _____P________ -1 -18.5652 60.3715 99 3 0
1899001S10067 1899 1 SI MM NOT_NAMED 1899-01-09 03:00:00 NR -18.7217 60.3792 main 323 313 _____P________ -1 -18.7217 60.3792 99 3 176
1899001S10067 1899 1 SI MM NOT_NAMED 1899-01-09 06:00:00 NR -18.9000 60.4000 reunion main 313 303 _____O________ -1 -18.9000 60.4000 99 9.90000 4 0
1899001S10067 1899 1 SI MM NOT_NAMED 1899-01-09 09:00:00 NR -19.0789 60.3658 main 303 284 _____P________ -1 -19.0789 60.3658 99 4 187
1899001S10067 1899 1 SI MM NOT_NAMED 1899-01-09 12:00:00 NR -19.2742 60.3384 main 284 276 _____P________ -1 -19.2742 60.3384 99 4 186
1899001S10067 1899 1 SI MM NOT_NAMED 1899-01-09 15:00:00 NR -19.4898 60.3281 main 276 269 _____P________ -1 -19.4898 60.3281 99 5 0
1899001S10067 1899 1 SI MM NOT_NAMED 1899-01-09 18:00:00 NR -19.7293 60.3453 main 269 267 _____P________ -1 -19.7293 60.3453 99 5 172
1899001S10067 1899 1 SI MM NOT_NAMED 1899-01-09 21:00:00 NR -19.9963 60.4004 main 273 271 _____P________ -1 -19.9963 60.4004 99 6 165
1899001S10067 1899 1 SI MM NOT_NAMED 1899-01-10 00:00:00 NR -20.2947 60.5040 main 281 281 _____P________ -1 -20.2947 60.5040 99 7 158
1899001S10067 1899 1 SI MM NOT_NAMED 1899-01-10 03:00:00 NR -20.6281 60.6669 main 303 303 _____P________ -1 -20.6281 60.6669 99 8 152
1899001S10067 1899 1 SI MM NOT_NAMED 1899-01-10 06:00:00 NR -21.0000 60.9000 reunion main 331 331 _____O________ -1 -21.0000 60.9000 99 9.90000 10 146
1899001S10067 1899 1 SI MM NOT_NAMED 1899-01-10 09:00:00 NR -21.4820 61.2858 main 387 387 _____P________ -1 -21.4820 61.2858 99 13 142
1899001S10067 1899 1 SI MM NOT_NAMED 1899-01-10 12:00:00 NR -22.0124 61.7532 main 456 456 _____P________ -1 -22.0124 61.7532 99 14 140
1899001S10067 1899 1 SI MM NOT_NAMED 1899-01-10 15:00:00 NR -22.5693 62.2788 main 530 530 _____P________ -1 -22.5693 62.2788 99 15 138
1899001S10067 1899 1 SI MM NOT_NAMED 1899-01-10 18:00:00 NR -23.1309 62.8381 main 601 601 _____P________ -1 -23.1309 62.8381 99 15 137
1899001S10067 1899 1 SI MM NOT_NAMED 1899-01-10 21:00:00 NR -23.6756 63.4061 main 687 687 _____P________ -1 -23.6756 63.4061 99 15 136
1899001S10067 1899 1 SI MM NOT_NAMED 1899-01-11 00:00:00 NR -24.1825 63.9569 main 768 768 _____P________ -1 -24.1825 63.9569 99 14 135
1899001S10067 1899 1 SI MM NOT_NAMED 1899-01-11 03:00:00 NR -24.6307 64.4639 main 834 834 _____P________ -1 -24.6307 64.4639 99 12 134
1899001S10067 1899 1 SI MM NOT_NAMED 1899-01-11 06:00:00 NR -25.0000 64.9000 reunion main 892 892 _____O________ -1 -25.0000 64.9000 99 9.90000 10 132
1899001S10067 1899 1 SI MM NOT_NAMED 1899-01-11 09:00:00 NR -25.2759 65.2442 main 936 936 _____P________ -1 -25.2759 65.2442 99 7 131
1899001S10067 1899 1 SI MM NOT_NAMED 1899-01-11 12:00:00 NR -25.4660 65.5015 main 973 973 _____P________ -1 -25.4660 65.5015 99 5 128
1899001S10067 1899 1 SI MM NOT_NAMED 1899-01-11 15:00:00 NR -25.5829 65.6836 main 996 996 _____P________ -1 -25.5829 65.6836 99 3 123
1899001S10067 1899 1 SI MM NOT_NAMED 1899-01-11 18:00:00 NR -25.6390 65.8028 main 1005 1005 _____P________ -1 -25.6390 65.8028 99 2 111
1899001S10067 1899 1 SI MM NOT_NAMED 1899-01-11 21:00:00 NR -25.6466 65.8714 main 1013 1013 _____P________ -1 -25.6466 65.8714 99 1 76
1899001S10067 1899 1 SI MM NOT_NAMED 1899-01-12 00:00:00 NR -25.6179 65.9020 main 1013 1013 _____P________ -1 -25.6179 65.9020 99 1 23
1899001S10067 1899 1 SI MM NOT_NAMED 1899-01-12 03:00:00 NR -25.5650 65.9073 main 1013 1007 _____P________ -1 -25.5650 65.9073 99 1 354
1899001S10067 1899 1 SI MM NOT_NAMED 1899-01-12 06:00:00 NR -25.5000 65.9000 reunion main 1007 _____O________ -1 -25.5000 65.9000 99 9.90000 1 342

IBTrACS Databaseについて

本データベースは、米国NOAAが公開する1842年以降の世界の熱帯低気圧のベストトラックデータアーカイブInternational Best Track Archive for Climate Stewardship (IBTrACS)を、ウェブで閲覧しやすい形式に変換したものです。

最終更新日:2021-12-01